METAR AND TAF INFORMATION
METAR FOR GECE
ADDS - METARS form results

(1027 UTC 03 October 2022)
Data provider http://aviationweather.gov/metar/data/
 
METAR text: GECE 031000Z AUTO VRB02KT 9999 BKN016/// OVC024/// 20/16 Q1022
Conditions at: GECE (CUETA , ES) observed 1000 UTC 03 October 2022
Temperature: 20.0°C (68°F)
Dewpoint: 16.0°C (61°F) [RH = 78%]
Pressure (altimeter): 30.18 inches Hg (1022.0 mb)
Winds: variable direction winds at 2 MPH (2 knots; 1.0 m/s)
Visibility: 6 or more miles (10+ km)
Ceiling: 1600 feet AGL
Clouds: broken clouds at 1600 feet AGL
overcast cloud deck at 2400 feet AGL
Weather: no significant weather observed at this time

METAR text: GECE 030930Z AUTO VRB02KT 9999 BKN015/// BKN020/// BKN027/// 20/17 Q1022
Conditions at: GECE (CUETA , ES) observed 0930 UTC 03 October 2022
Temperature: 20.0°C (68°F)
Dewpoint: 17.0°C (63°F) [RH = 83%]
Pressure (altimeter): 30.18 inches Hg (1022.0 mb)
Winds: variable direction winds at 2 MPH (2 knots; 1.0 m/s)
Visibility: 6 or more miles (10+ km)
Ceiling: 1500 feet AGL
Clouds: broken clouds at 1500 feet AGL
broken clouds at 2000 feet AGL
broken clouds at 2700 feet AGL
Weather: no significant weather observed at this time

Forecast for: GECE (CUETA , ES)
Text: TAF GECE 030800Z 0309/0409 06005KT 9999 SCT018 TX24/0314Z TN18/0405Z
Forecast period: 0900 UTC 03 October 2022 to 0900 UTC 04 October 2022
Forecast type: FROM: standard forecast or significant change
Winds: from the ENE (60 degrees) at 6 MPH (5 knots; 2.6 m/s)
Visibility: 6 or more miles (10+ km)
Ceiling: at least 12,000 feet AGL
Clouds: scattered clouds at 1800 feet AGL
Weather: no significant weather forecast for this period
Text: PROB40
Forecast period: 0200 to 0900 UTC 04 October 2022
Forecast type: TEMPORARY: The following changes expected for less than half the time period
Visibility: 2.49 miles (4.01 km)
Ceiling: 1200 feet AGL
Clouds: broken clouds at 1200 feet AGL
Weather: BR  (mist)

 AIRPORT MAP

 RUNWAY INFORMATION
Runway 07 Runway length 787 ft Runway width 112 ft
Runway elevation 8 ft Runway displaced threshold 0 ft Runway heading 67
Runway 25 Runway length 787 ft Runway width 112 ft
Runway elevation 8 ft Runway displaced threshold 0 ft Runway heading 247

 AIRPORT FREQUENCIES
Type CTAF Name Frequency 123.235 MHZ
Type AWOS Name Frequency 122.5 MHZ

 AIRPORT NEAR NAVIGATION AIDS
Type NDB-DME Name Ceuta Frequency 300 KHZ





Powered by Virtual Airlines Manager

Maps by Rafael Santos